createdAt,value
2022-07-29T00:00:59.045Z,1.42
2022-07-29T00:03:26.058Z,1.35
2022-07-29T00:05:54.047Z,1.38
2022-07-29T00:08:21.208Z,1.40
2022-07-29T00:10:48.040Z,1.20
2022-07-29T00:13:15.034Z,1.30
2022-07-29T00:15:41.812Z,1.60
2022-07-29T00:18:08.564Z,1.27
2022-07-29T00:20:35.258Z,1.40
2022-07-29T00:23:01.942Z,1.70
2022-07-29T00:25:28.622Z,1.50
2022-07-29T00:27:55.327Z,1.50
2022-07-29T00:30:22.192Z,1.73
2022-07-29T00:32:48.863Z,1.48
2022-07-29T00:35:35.834Z,1.90
2022-07-29T00:38:02.536Z,1.33
2022-07-29T00:40:29.254Z,1.60
2022-07-29T00:42:56.050Z,1.30
2022-07-29T00:45:25.625Z,1.35
2022-07-29T00:47:52.460Z,1.52
2022-07-29T00:50:19.422Z,1.30
2022-07-29T00:52:46.362Z,1.40
2022-07-29T00:55:15.808Z,1.70
2022-07-29T00:57:43.955Z,1.50
2022-07-29T01:00:14.357Z,1.30
2022-07-29T01:02:41.110Z,1.65
2022-07-29T01:05:08.406Z,1.45
2022-07-29T01:07:37.155Z,1.30
2022-07-29T01:10:08.896Z,1.77
2022-07-29T01:12:38.218Z,1.60
2022-07-29T01:15:07.900Z,1.60
2022-07-29T01:17:53.615Z,1.48
2022-07-29T01:20:41.866Z,1.60
2022-07-29T01:23:11.411Z,1.58
2022-07-29T01:25:56.049Z,1.42
2022-07-29T01:28:57.651Z,1.35
2022-07-29T01:31:36.566Z,1.67
2022-07-29T01:34:12.031Z,1.38
2022-07-29T01:36:46.752Z,1.40
2022-07-29T01:39:26.160Z,1.65
2022-07-29T01:42:02.929Z,1.50
2022-07-29T01:44:42.405Z,1.70
2022-07-29T01:47:18.449Z,1.63
2022-07-29T01:49:55.656Z,1.40
2022-07-29T01:52:32.670Z,1.60
2022-07-29T01:55:03.877Z,1.60
2022-07-29T01:57:34.561Z,1.33
2022-07-29T02:00:02.750Z,1.63
2022-07-29T02:02:31.107Z,1.42
2022-07-29T02:04:58.798Z,1.55
2022-07-29T02:07:27.989Z,2.20
2022-07-29T02:09:55.770Z,1.58
2022-07-29T02:12:25.136Z,1.60
2022-07-29T02:14:55.464Z,1.60
2022-07-29T02:19:52.565Z,1.60
2022-07-29T02:22:20.636Z,1.40
2022-07-29T02:24:50.334Z,1.60
2022-07-29T02:27:19.925Z,1.50
2022-07-29T02:29:48.374Z,2.05
2022-07-29T02:32:16.933Z,1.77
2022-07-29T02:34:44.913Z,1.63
2022-07-29T02:37:13.523Z,1.60
2022-07-29T02:39:43.641Z,1.70
2022-07-29T02:42:14.881Z,1.42
2022-07-29T02:44:41.770Z,1.70
2022-07-29T02:47:21.616Z,2.00
2022-07-29T02:50:00.638Z,1.50
2022-07-29T02:52:36.015Z,1.77
2022-07-29T02:55:23.371Z,1.70
2022-07-29T02:58:01.811Z,1.65
2022-07-29T03:00:30.668Z,1.75
2022-07-29T03:03:00.564Z,1.80
2022-07-29T03:05:28.209Z,1.98
2022-07-29T03:08:02.468Z,1.65
2022-07-29T03:10:29.998Z,1.88
2022-07-29T03:12:58.456Z,1.80
2022-07-29T03:15:27.459Z,1.75
2022-07-29T03:17:54.891Z,1.75
2022-07-29T03:20:21.972Z,1.80
2022-07-29T03:22:49.086Z,2.20
2022-07-29T03:25:17.328Z,1.60
2022-07-29T03:27:45.041Z,1.83
2022-07-29T03:30:13.018Z,1.90
2022-07-29T03:32:45.367Z,1.80
2022-07-29T03:35:12.633Z,1.90
2022-07-29T03:37:39.275Z,1.92
2022-07-29T03:40:09.599Z,1.88
2022-07-29T03:45:08.132Z,1.75
2022-07-29T03:47:49.845Z,1.80
2022-07-29T03:50:20.429Z,1.80
2022-07-29T03:52:47.702Z,1.92
2022-07-29T03:55:15.659Z,1.90
2022-07-29T03:57:43.366Z,1.67
2022-07-29T04:00:11.335Z,2.00
2022-07-29T04:02:39.359Z,1.70
2022-07-29T04:05:12.422Z,2.22
2022-07-29T04:07:39.115Z,1.60
2022-07-29T04:10:06.378Z,1.60
2022-07-29T04:12:33.329Z,1.75
2022-07-29T04:14:59.989Z,1.95
2022-07-29T04:17:26.777Z,1.50
2022-07-29T04:19:53.483Z,1.80
2022-07-29T04:22:20.248Z,1.65
2022-07-29T04:24:47.279Z,1.65
2022-07-29T04:27:14.091Z,1.67
2022-07-29T04:29:56.958Z,1.58
2022-07-29T04:32:25.121Z,1.65
2022-07-29T04:34:52.034Z,1.60
2022-07-29T04:37:18.830Z,1.70
2022-07-29T04:39:45.555Z,1.60
2022-07-29T04:42:12.203Z,1.58
2022-07-29T04:44:43.153Z,1.98
2022-07-29T04:47:10.314Z,1.60
2022-07-29T04:49:39.815Z,1.75
2022-07-29T04:52:07.596Z,2.00
2022-07-29T04:54:34.464Z,1.90
2022-07-29T04:57:01.146Z,1.80
2022-07-29T04:59:28.101Z,1.90
2022-07-29T05:01:54.978Z,1.60
2022-07-29T05:04:21.757Z,1.73
2022-07-29T05:06:49.214Z,1.73
2022-07-29T05:09:15.955Z,1.75
2022-07-29T05:11:42.711Z,1.63
2022-07-29T05:14:09.388Z,1.70
2022-07-29T05:16:36.239Z,2.00
2022-07-29T05:19:03.022Z,2.03
2022-07-29T05:21:29.714Z,1.63
2022-07-29T05:23:56.497Z,1.92
2022-07-29T05:26:23.175Z,1.58
2022-07-29T05:28:49.974Z,1.80
2022-07-29T05:31:16.856Z,1.80
2022-07-29T05:33:43.764Z,1.80
2022-07-29T05:36:10.610Z,1.67
2022-07-29T05:38:37.619Z,1.70
2022-07-29T05:41:06.097Z,1.90
2022-07-29T05:43:32.967Z,1.58
2022-07-29T05:45:59.884Z,1.60
2022-07-29T05:48:26.762Z,1.80
2022-07-29T05:50:53.550Z,2.10
2022-07-29T05:53:20.979Z,1.60
2022-07-29T05:55:51.385Z,1.90
2022-07-29T05:58:18.147Z,1.80
2022-07-29T06:00:45.457Z,2.05
2022-07-29T06:03:12.400Z,1.90
2022-07-29T06:05:39.121Z,2.08
2022-07-29T06:08:09.165Z,2.15
2022-07-29T06:10:36.605Z,1.92
2022-07-29T06:13:03.459Z,1.98
2022-07-29T06:15:30.212Z,1.90
2022-07-29T06:17:59.148Z,1.92
2022-07-29T06:20:27.801Z,2.10
2022-07-29T06:22:54.516Z,1.92
2022-07-29T06:25:21.250Z,2.10
2022-07-29T06:27:47.953Z,1.80
2022-07-29T06:30:14.648Z,2.05
2022-07-29T06:32:43.231Z,2.03
2022-07-29T06:35:37.871Z,2.50
2022-07-29T06:37:59.602Z,2.10
2022-07-29T06:40:46.159Z,2.00
2022-07-29T06:43:12.858Z,2.10
2022-07-29T06:45:42.116Z,2.33
2022-07-29T06:48:09.823Z,2.30
2022-07-29T06:50:36.769Z,2.05
2022-07-29T06:53:04.160Z,2.65
2022-07-29T06:55:30.841Z,2.17
2022-07-29T06:57:57.547Z,2.25
2022-07-29T07:00:24.307Z,2.75
2022-07-29T07:02:51.079Z,2.42
2022-07-29T07:05:17.898Z,2.50
2022-07-29T07:07:44.647Z,2.90
2022-07-29T07:10:11.370Z,2.28
2022-07-29T07:12:38.045Z,2.38
2022-07-29T07:15:05.314Z,2.60
2022-07-29T07:17:31.992Z,2.20
2022-07-29T07:19:58.676Z,2.60
2022-07-29T07:22:25.387Z,2.00
2022-07-29T07:24:52.508Z,2.55
2022-07-29T07:27:19.330Z,2.40
2022-07-29T07:29:46.007Z,2.40
2022-07-29T07:32:14.223Z,2.10
2022-07-29T07:34:41.024Z,2.40
2022-07-29T07:37:07.715Z,2.03
2022-07-29T07:39:34.392Z,2.17
2022-07-29T07:42:01.398Z,2.28
2022-07-29T07:44:28.279Z,2.05
2022-07-29T07:46:55.002Z,2.40
2022-07-29T07:49:21.924Z,2.40
2022-07-29T07:51:50.494Z,2.17
2022-07-29T07:54:20.509Z,2.75
2022-07-29T07:56:49.949Z,2.50
2022-07-29T07:59:19.761Z,2.20
2022-07-29T08:01:48.409Z,2.30
2022-07-29T08:04:27.745Z,2.33
2022-07-29T08:06:56.284Z,1.98
2022-07-29T08:09:30.978Z,2.00
2022-07-29T08:11:59.976Z,1.83
2022-07-29T08:14:26.791Z,1.90
2022-07-29T08:16:53.521Z,2.40
2022-07-29T08:19:20.521Z,2.30
2022-07-29T08:21:47.352Z,1.88
2022-07-29T08:24:32.494Z,2.10
2022-07-29T08:26:59.310Z,2.00
2022-07-29T08:29:26.076Z,2.20
2022-07-29T08:31:53.030Z,2.13
2022-07-29T08:34:20.954Z,2.35
2022-07-29T08:36:54.431Z,2.10
2022-07-29T08:39:21.174Z,2.00
2022-07-29T08:41:57.505Z,2.30
2022-07-29T08:44:30.488Z,2.10
2022-07-29T08:46:58.112Z,2.22
2022-07-29T08:49:24.890Z,2.25
2022-07-29T08:51:52.454Z,2.17
2022-07-29T08:54:20.783Z,1.92
2022-07-29T08:56:50.865Z,2.65
2022-07-29T08:59:20.781Z,2.13
2022-07-29T09:01:49.736Z,2.20
2022-07-29T09:04:17.204Z,2.15
2022-07-29T09:06:47.136Z,2.10
2022-07-29T09:09:14.794Z,2.20
2022-07-29T09:11:42.927Z,2.40
2022-07-29T09:14:11.789Z,2.03
2022-07-29T09:16:54.255Z,1.90
2022-07-29T09:19:37.852Z,2.28
2022-07-29T09:22:06.697Z,2.15
2022-07-29T09:24:43.928Z,1.70
2022-07-29T09:27:20.379Z,2.25
2022-07-29T09:29:47.988Z,2.00
2022-07-29T09:32:14.745Z,2.22
2022-07-29T09:34:41.496Z,2.08
2022-07-29T09:37:08.445Z,1.83
2022-07-29T09:39:46.770Z,2.08
2022-07-29T09:42:16.721Z,1.90
2022-07-29T09:44:49.194Z,2.20
2022-07-29T09:47:17.446Z,1.90
2022-07-29T09:50:00.902Z,1.70
2022-07-29T09:52:29.743Z,2.00
2022-07-29T09:55:07.277Z,2.20
2022-07-29T09:57:34.021Z,1.80
2022-07-29T10:00:09.903Z,2.05
2022-07-29T10:02:37.980Z,1.98
2022-07-29T10:05:16.878Z,1.90
2022-07-29T10:07:54.298Z,1.92
2022-07-29T10:10:26.189Z,2.08
2022-07-29T10:12:56.985Z,1.98
2022-07-29T10:15:30.529Z,1.80
2022-07-29T10:18:00.035Z,1.88
2022-07-29T10:20:28.555Z,1.80
2022-07-29T10:22:56.676Z,2.10
2022-07-29T10:25:24.515Z,1.75
2022-07-29T10:27:52.437Z,1.85
2022-07-29T10:30:20.356Z,2.00
2022-07-29T10:33:30.265Z,2.10
2022-07-29T10:36:12.894Z,2.10
2022-07-29T10:38:55.792Z,2.00
2022-07-29T10:41:47.686Z,2.13
2022-07-29T10:44:23.173Z,2.05
2022-07-29T10:46:52.104Z,2.03
2022-07-29T10:49:27.106Z,2.00
2022-07-29T10:52:06.922Z,1.80
2022-07-29T10:54:54.571Z,1.80
2022-07-29T10:57:53.165Z,1.80
2022-07-29T11:00:16.881Z,2.40
2022-07-29T11:02:45.902Z,2.03
2022-07-29T11:05:18.773Z,1.70
2022-07-29T11:08:20.468Z,2.20
2022-07-29T11:10:51.395Z,2.10
2022-07-29T11:13:44.628Z,1.70
2022-07-29T11:16:13.784Z,1.60
2022-07-29T11:19:14.186Z,1.98
2022-07-29T11:21:55.310Z,2.03
2022-07-29T11:24:31.879Z,1.80
2022-07-29T11:27:13.269Z,2.22
2022-07-29T11:29:50.815Z,1.80
2022-07-29T11:32:23.213Z,1.80
2022-07-29T11:35:16.798Z,2.40
2022-07-29T11:37:52.751Z,1.85
2022-07-29T11:40:22.979Z,2.65
2022-07-29T11:45:47.948Z,2.67
2022-07-29T11:48:28.642Z,2.00
2022-07-29T11:50:58.215Z,2.00
2022-07-29T11:53:25.625Z,2.38
2022-07-29T11:55:58.399Z,2.05
2022-07-29T11:58:27.075Z,2.00
2022-07-29T12:00:55.752Z,2.00
2022-07-29T12:03:35.268Z,1.92
2022-07-29T12:06:13.258Z,2.47
2022-07-29T12:08:44.330Z,2.55
2022-07-29T12:11:22.735Z,2.47
2022-07-29T12:13:51.910Z,2.25
2022-07-29T12:16:25.722Z,2.60
2022-07-29T12:19:02.097Z,2.60
2022-07-29T12:21:30.987Z,2.85
2022-07-29T12:24:04.802Z,2.75
2022-07-29T12:26:34.114Z,2.50
2022-07-29T12:29:03.103Z,2.47
2022-07-29T12:31:43.684Z,2.50
2022-07-29T12:34:16.579Z,2.67
2022-07-29T12:36:44.148Z,2.40
2022-07-29T12:39:12.340Z,2.70
2022-07-29T12:41:39.973Z,2.85
2022-07-29T12:44:06.690Z,2.60
2022-07-29T12:46:33.544Z,2.45
2022-07-29T12:49:00.524Z,2.80
2022-07-29T12:51:32.183Z,2.63
2022-07-29T12:54:16.694Z,2.53
2022-07-29T12:56:45.629Z,2.47
2022-07-29T12:59:23.390Z,2.57
2022-07-29T13:01:52.770Z,2.33
2022-07-29T13:04:31.518Z,2.35
2022-07-29T13:07:10.364Z,2.05
2022-07-29T13:09:46.373Z,2.40
2022-07-29T13:12:14.663Z,2.35
2022-07-29T13:14:44.393Z,2.10
2022-07-29T13:17:20.179Z,2.25
2022-07-29T13:19:51.103Z,2.38
2022-07-29T13:22:23.290Z,2.30
2022-07-29T13:24:54.628Z,2.10
2022-07-29T13:27:23.876Z,2.28
2022-07-29T13:29:52.324Z,2.00
2022-07-29T13:32:28.772Z,2.05
2022-07-29T13:35:01.146Z,2.20
2022-07-29T13:37:30.514Z,2.22
2022-07-29T13:39:58.262Z,2.65
2022-07-29T13:42:25.944Z,2.15
2022-07-29T13:44:53.099Z,2.47
2022-07-29T13:47:23.308Z,2.30
2022-07-29T13:52:26.635Z,2.05
2022-07-29T13:54:53.308Z,1.92
2022-07-29T13:57:20.408Z,1.75
2022-07-29T13:59:50.608Z,2.03
2022-07-29T14:02:20.713Z,2.00
2022-07-29T14:04:47.577Z,1.80
2022-07-29T14:07:16.252Z,2.72
2022-07-29T14:09:43.655Z,2.87
2022-07-29T14:12:10.790Z,2.00
2022-07-29T14:14:37.716Z,1.70
2022-07-29T14:17:07.422Z,2.13
2022-07-29T14:19:39.144Z,2.20
2022-07-29T14:22:07.393Z,1.73
2022-07-29T14:24:37.336Z,1.80
2022-07-29T14:27:05.356Z,1.75
2022-07-29T14:29:37.073Z,2.03
2022-07-29T14:32:08.704Z,1.80
2022-07-29T14:34:36.332Z,1.73
2022-07-29T14:37:03.825Z,1.73
2022-07-29T14:39:31.666Z,1.63
2022-07-29T14:41:59.476Z,1.83
2022-07-29T14:44:32.058Z,2.00
2022-07-29T14:47:00.549Z,1.90
2022-07-29T14:49:30.031Z,2.00
2022-07-29T14:51:57.204Z,1.67
2022-07-29T14:54:24.188Z,1.77
2022-07-29T14:56:51.867Z,1.73
2022-07-29T14:59:18.557Z,2.20
2022-07-29T15:01:45.341Z,1.63
2022-07-29T15:04:12.070Z,2.03
2022-07-29T15:06:38.939Z,1.70
2022-07-29T15:09:05.909Z,1.70
2022-07-29T15:11:36.972Z,1.77
2022-07-29T15:14:06.528Z,1.92
2022-07-29T15:16:33.608Z,1.80
2022-07-29T15:19:01.136Z,1.90
2022-07-29T15:21:28.095Z,1.67
2022-07-29T15:23:55.030Z,1.75
2022-07-29T15:26:21.985Z,1.85
2022-07-29T15:28:49.106Z,1.55
2022-07-29T15:31:16.106Z,1.92
2022-07-29T15:33:42.862Z,1.60
2022-07-29T15:36:09.662Z,1.70
2022-07-29T15:38:41.897Z,1.80
2022-07-29T15:41:09.299Z,1.58
2022-07-29T15:43:36.350Z,1.52
2022-07-29T15:46:21.687Z,1.90
2022-07-29T15:48:48.520Z,1.85
2022-07-29T15:51:15.434Z,1.90
2022-07-29T15:53:42.245Z,1.90
2022-07-29T15:56:08.916Z,2.00
2022-07-29T15:58:35.563Z,1.85
2022-07-29T16:01:02.352Z,1.80
2022-07-29T16:03:30.342Z,1.90
2022-07-29T16:05:57.249Z,1.83
2022-07-29T16:08:24.062Z,2.00
2022-07-29T16:10:50.948Z,1.90
2022-07-29T16:13:18.982Z,1.70
2022-07-29T16:16:01.936Z,1.92
2022-07-29T16:18:30.289Z,2.13
2022-07-29T16:20:57.712Z,1.90
2022-07-29T16:23:24.717Z,2.08
2022-07-29T16:25:59.602Z,2.08
2022-07-29T16:28:27.987Z,1.85
2022-07-29T16:30:54.666Z,1.75
2022-07-29T16:33:21.330Z,1.70
2022-07-29T16:35:48.123Z,2.40
2022-07-29T16:38:14.908Z,2.35
2022-07-29T16:40:42.011Z,2.60
2022-07-29T16:43:08.802Z,2.00
2022-07-29T16:45:45.145Z,2.45
2022-07-29T16:48:14.753Z,2.63
2022-07-29T16:50:43.298Z,2.85
2022-07-29T16:53:10.606Z,3.13
2022-07-29T16:55:37.627Z,2.30
2022-07-29T16:58:04.525Z,2.75
2022-07-29T17:00:31.661Z,2.65
2022-07-29T17:02:59.938Z,2.17
2022-07-29T17:05:29.707Z,2.13
2022-07-29T17:08:16.414Z,2.88
2022-07-29T17:10:43.086Z,2.33
2022-07-29T17:15:19.848Z,2.00
2022-07-29T17:17:55.306Z,2.10
2022-07-29T17:20:23.821Z,2.20
2022-07-29T17:22:50.592Z,2.00
2022-07-29T17:25:20.321Z,2.00
2022-07-29T17:27:51.165Z,1.92
2022-07-29T17:30:18.278Z,2.38
2022-07-29T17:32:45.178Z,2.10
2022-07-29T17:35:30.390Z,2.60
2022-07-29T17:37:57.152Z,2.58
2022-07-29T17:40:23.944Z,2.70
2022-07-29T17:42:51.036Z,2.53
2022-07-29T17:45:18.007Z,2.20
2022-07-29T17:47:45.382Z,2.13
2022-07-29T17:50:12.217Z,2.88
2022-07-29T17:52:39.155Z,3.03
2022-07-29T17:55:07.037Z,2.28
2022-07-29T17:57:34.082Z,2.33
2022-07-29T18:00:00.862Z,2.38
2022-07-29T18:02:28.389Z,2.00
2022-07-29T18:04:55.353Z,2.88
2022-07-29T18:07:22.136Z,2.28
2022-07-29T18:09:48.855Z,2.65
2022-07-29T18:12:15.936Z,2.30
2022-07-29T18:14:42.707Z,2.13
2022-07-29T18:17:09.512Z,2.70
2022-07-29T18:19:36.218Z,2.63
2022-07-29T18:22:05.104Z,2.35
2022-07-29T18:24:32.434Z,2.20
2022-07-29T18:26:59.379Z,2.30
2022-07-29T18:29:28.929Z,2.70
2022-07-29T18:31:56.260Z,2.08
2022-07-29T18:34:22.986Z,2.45
2022-07-29T18:36:49.701Z,2.40
2022-07-29T18:39:20.873Z,2.03
2022-07-29T18:41:50.178Z,2.20
2022-07-29T18:44:18.862Z,1.92
2022-07-29T18:46:47.468Z,2.05
2022-07-29T18:49:15.152Z,1.90
2022-07-29T18:51:42.468Z,2.00
2022-07-29T18:54:10.471Z,1.80
2022-07-29T18:56:37.385Z,2.10
2022-07-29T18:59:04.482Z,1.85
2022-07-29T19:01:32.249Z,2.55
2022-07-29T19:03:59.781Z,2.20
2022-07-29T19:06:26.517Z,1.83
2022-07-29T19:08:53.605Z,2.05
2022-07-29T19:11:20.333Z,1.98
2022-07-29T19:13:47.000Z,1.98
2022-07-29T19:16:14.467Z,2.15
2022-07-29T19:18:41.544Z,2.10
2022-07-29T19:21:08.342Z,1.95
2022-07-29T19:24:01.713Z,2.38
2022-07-29T19:26:21.863Z,2.28
2022-07-29T19:28:49.307Z,2.10
2022-07-29T19:31:16.332Z,2.15
2022-07-29T19:33:43.223Z,2.60
2022-07-29T19:36:09.985Z,2.42
2022-07-29T19:38:39.367Z,2.47
2022-07-29T19:41:06.321Z,2.40
2022-07-29T19:43:50.915Z,2.10
2022-07-29T19:46:20.433Z,2.30
2022-07-29T19:48:47.443Z,2.20
2022-07-29T19:51:14.199Z,2.35
2022-07-29T19:53:40.925Z,2.50
2022-07-29T19:56:08.811Z,2.17
2022-07-29T19:58:36.183Z,2.30
2022-07-29T20:01:03.078Z,2.40
2022-07-29T20:03:40.581Z,2.60
2022-07-29T20:06:07.688Z,3.03
2022-07-29T20:08:34.641Z,2.75
2022-07-29T20:11:01.433Z,3.25
2022-07-29T20:13:28.454Z,2.85
2022-07-29T20:15:55.212Z,2.83
2022-07-29T20:18:21.922Z,2.88
2022-07-29T20:20:49.594Z,2.75
2022-07-29T20:23:18.249Z,2.88
2022-07-29T20:25:45.320Z,2.72
2022-07-29T20:28:12.068Z,2.40
2022-07-29T20:30:38.939Z,2.95
2022-07-29T20:33:06.649Z,2.63
2022-07-29T20:35:33.761Z,3.35
2022-07-29T20:38:00.972Z,3.10
2022-07-29T20:40:29.117Z,3.00
2022-07-29T20:42:56.166Z,2.95
2022-07-29T20:45:24.156Z,2.88
2022-07-29T20:47:52.026Z,2.70
2022-07-29T20:50:20.486Z,2.50
2022-07-29T20:52:50.999Z,2.70
2022-07-29T20:55:17.881Z,2.80
2022-07-29T20:57:44.542Z,2.80
2022-07-29T21:00:11.829Z,3.00
2022-07-29T21:02:38.592Z,2.92
2022-07-29T21:05:05.920Z,2.53
2022-07-29T21:07:32.718Z,3.35
2022-07-29T21:09:59.414Z,3.30
2022-07-29T21:12:26.144Z,3.15
2022-07-29T21:14:52.835Z,3.05
2022-07-29T21:17:22.563Z,3.65
2022-07-29T21:19:52.435Z,3.30
2022-07-29T21:22:21.696Z,3.25
2022-07-29T21:24:49.052Z,3.38
2022-07-29T21:27:34.570Z,3.40
2022-07-29T21:30:01.303Z,3.03
2022-07-29T21:32:30.348Z,3.10
2022-07-29T21:34:57.752Z,3.10
2022-07-29T21:37:24.478Z,2.83
2022-07-29T21:39:51.199Z,3.22
2022-07-29T21:42:17.949Z,2.80
2022-07-29T21:44:44.675Z,3.22
2022-07-29T21:47:11.841Z,3.25
2022-07-29T21:49:39.188Z,3.13
2022-07-29T21:52:08.006Z,3.42
2022-07-29T21:54:35.657Z,3.20
2022-07-29T21:57:02.545Z,3.50
2022-07-29T21:59:29.786Z,3.25
2022-07-29T22:02:00.683Z,3.55
2022-07-29T22:04:30.979Z,3.53
2022-07-29T22:06:58.588Z,4.40
2022-07-29T22:09:26.099Z,3.78
2022-07-29T22:11:53.297Z,4.18
2022-07-29T22:14:20.542Z,3.55
2022-07-29T22:16:47.768Z,3.42
2022-07-29T22:19:15.132Z,3.60
2022-07-29T22:21:42.358Z,3.50
2022-07-29T22:24:10.640Z,3.53
2022-07-29T22:26:38.454Z,3.30
2022-07-29T22:29:05.573Z,3.50
2022-07-29T22:31:32.341Z,3.55
2022-07-29T22:33:59.149Z,3.90
2022-07-29T22:36:26.564Z,3.33
2022-07-29T22:38:53.289Z,4.53
2022-07-29T22:41:20.022Z,4.72
2022-07-29T22:43:46.810Z,6.65
2022-07-29T22:46:13.573Z,3.80
2022-07-29T22:48:40.334Z,3.65
2022-07-29T22:51:07.380Z,3.58
2022-07-29T22:53:34.184Z,3.20
2022-07-29T22:56:00.840Z,3.38
2022-07-29T22:58:27.660Z,3.53
2022-07-29T23:00:54.541Z,3.60
2022-07-29T23:03:22.083Z,3.05
2022-07-29T23:05:50.709Z,3.75
2022-07-29T23:08:18.581Z,3.70
2022-07-29T23:10:45.768Z,3.60
2022-07-29T23:13:12.684Z,3.30
2022-07-29T23:15:39.413Z,3.30
2022-07-29T23:18:06.148Z,3.40
2022-07-29T23:20:32.918Z,3.83
2022-07-29T23:22:59.599Z,3.40
2022-07-29T23:25:26.357Z,3.88
2022-07-29T23:27:52.997Z,3.15
2022-07-29T23:30:19.764Z,3.25
2022-07-29T23:32:46.500Z,3.30
2022-07-29T23:35:13.254Z,2.88
2022-07-29T23:37:41.334Z,3.40
2022-07-29T23:40:13.961Z,3.60
2022-07-29T23:42:42.247Z,3.20
2022-07-29T23:45:10.118Z,3.40
2022-07-29T23:47:36.846Z,3.53
2022-07-29T23:50:05.030Z,3.55
2022-07-29T23:52:31.686Z,3.15
2022-07-29T23:55:38.034Z,3.60
2022-07-29T23:57:45.262Z,3.33
